地図

経路データ

SID SEASON NUMBER BASIN SUBBASIN NAME ISO_TIME NATURE LAT LON WMO_WIND WMO_PRES WMO_AGENCY TRACK_TYPE DIST2LAND LANDFALL IFLAG USA_AGENCY USA_ATCF_ID USA_LAT USA_LON USA_RECORD USA_STATUS USA_WIND USA_PRES USA_SSHS USA_R34_NE USA_R34_SE USA_R34_SW USA_R34_NW USA_R50_NE USA_R50_SE USA_R50_SW USA_R50_NW USA_R64_NE USA_R64_SE USA_R64_SW USA_R64_NW USA_POCI USA_ROCI USA_RMW USA_EYE TOKYO_LAT TOKYO_LON TOKYO_GRADE TOKYO_WIND TOKYO_PRES TOKYO_R50_DIR TOKYO_R50_LONG TOKYO_R50_SHORT TOKYO_R30_DIR TOKYO_R30_LONG TOKYO_R30_SHORT TOKYO_LAND CMA_LAT CMA_LON CMA_CAT CMA_WIND CMA_PRES HKO_LAT HKO_LON HKO_CAT HKO_WIND HKO_PRES NEWDELHI_LAT NEWDELHI_LON NEWDELHI_GRADE NEWDELHI_WIND NEWDELHI_PRES NEWDELHI_CI NEWDELHI_DP NEWDELHI_POCI REUNION_LAT REUNION_LON REUNION_TYPE REUNION_WIND REUNION_PRES REUNION_TNUM REUNION_CI REUNION_RMW REUNION_R34_NE REUNION_R34_SE REUNION_R34_SW REUNION_R34_NW REUNION_R50_NE REUNION_R50_SE REUNION_R50_SW REUNION_R50_NW REUNION_R64_NE REUNION_R64_SE REUNION_R64_SW REUNION_R64_NW BOM_LAT BOM_LON BOM_TYPE BOM_WIND BOM_PRES BOM_TNUM BOM_CI BOM_RMW BOM_R34_NE BOM_R34_SE BOM_R34_SW BOM_R34_NW BOM_R50_NE BOM_R50_SE BOM_R50_SW BOM_R50_NW BOM_R64_NE BOM_R64_SE BOM_R64_SW BOM_R64_NW BOM_ROCI BOM_POCI BOM_EYE BOM_POS_METHOD BOM_PRES_METHOD NADI_LAT NADI_LON NADI_CAT NADI_WIND NADI_PRES WELLINGTON_LAT WELLINGTON_LON WELLINGTON_WIND WELLINGTON_PRES DS824_LAT DS824_LON DS824_STAGE DS824_WIND DS824_PRES TD9636_LAT TD9636_LON TD9636_STAGE TD9636_WIND TD9636_PRES TD9635_LAT TD9635_LON TD9635_WIND TD9635_PRES TD9635_ROCI NEUMANN_LAT NEUMANN_LON NEUMANN_CLASS NEUMANN_WIND NEUMANN_PRES MLC_LAT MLC_LON MLC_CLASS MLC_WIND MLC_PRES USA_GUST BOM_GUST BOM_GUST_PER REUNION_GUST REUNION_GUST_PER USA_SEAHGT USA_SEARAD_NE USA_SEARAD_SE USA_SEARAD_SW USA_SEARAD_NW STORM_SPEED STORM_DIR
1920346S14072 1921 54 SI MM NOT_NAMED 1920-12-11 00:00:00 TS -13.6000 71.7000 main 1656 1593 _________O____ -1 -13.6000 71.7000 TC 25 12 241
1920346S14072 1921 54 SI MM NOT_NAMED 1920-12-11 03:00:00 TS -13.9002 71.1527 main 1593 1520 _________P____ -1 -13.9002 71.1527 TC 25 12 241
1920346S14072 1921 54 SI MM NOT_NAMED 1920-12-11 06:00:00 TS -14.2000 70.6000 main 1520 1456 _________O____ -1 -14.2000 70.6000 TC 25 12 241
1920346S14072 1921 54 SI MM NOT_NAMED 1920-12-11 09:00:00 TS -14.4999 70.0424 main 1447 1384 _________P____ -1 -14.4999 70.0424 TC 25 12 241
1920346S14072 1921 54 SI MM NOT_NAMED 1920-12-11 12:00:00 TS -14.8000 69.5000 main 1384 1320 _________O____ -1 -14.8000 69.5000 TC 25 12 239
1920346S14072 1921 54 SI MM NOT_NAMED 1920-12-11 15:00:00 TS -15.0998 68.9923 main 1320 1257 _________P____ -1 -15.0998 68.9923 TC 25 11 238
1920346S14072 1921 54 SI MM NOT_NAMED 1920-12-11 18:00:00 TS -15.4000 68.5000 main 1257 1194 _________O____ -1 -15.4000 68.5000 TC 25 11 238
1920346S14072 1921 54 SI MM NOT_NAMED 1920-12-11 21:00:00 TS -15.6772 68.0220 main 1194 1131 _________P____ -1 -15.6772 68.0220 TC 25 11 238
1920346S14072 1921 54 SI MM NOT_NAMED 1920-12-12 00:00:00 TS -16.0000 67.5000 main 1131 1054 _________O____ -1 -16.0000 67.5000 TC 25 13 236
1920346S14072 1921 54 SI MM NOT_NAMED 1920-12-12 03:00:00 TS -16.4276 66.8651 main 1054 963 _________P____ -1 -16.4276 66.8651 TC 25 15 234
1920346S14072 1921 54 SI MM NOT_NAMED 1920-12-12 06:00:00 TS -16.9000 66.2000 main 963 886 _________O____ -1 -16.9000 66.2000 TC 25 15 233
1920346S14072 1921 54 SI MM NOT_NAMED 1920-12-12 09:00:00 TS -17.3498 65.5922 main 886 806 _________P____ -1 -17.3498 65.5922 TC 25 15 232
1920346S14072 1921 54 SI MM NOT_NAMED 1920-12-12 12:00:00 TS -17.8000 65.0000 main 806 731 _________O____ -1 -17.8000 65.0000 TC 25 15 232
1920346S14072 1921 54 SI MM NOT_NAMED 1920-12-12 15:00:00 TS -18.2424 64.3922 main 731 653 _________P____ -1 -18.2424 64.3922 TC 25 15 232
1920346S14072 1921 54 SI MM NOT_NAMED 1920-12-12 18:00:00 TS -18.7000 63.8000 main 653 578 _________O____ -1 -18.7000 63.8000 TC 25 15 230
1920346S14072 1921 54 SI MM NOT_NAMED 1920-12-12 21:00:00 TS -19.2227 63.1755 main 578 516 _________P____ -1 -19.2227 63.1755 TC 25 14 226
1920346S14072 1921 54 SI MM NOT_NAMED 1920-12-13 00:00:00 TS -19.7000 62.7000 main 516 491 _________O____ -1 -19.7000 62.7000 TC 25 10 218
1920346S14072 1921 54 SI MM NOT_NAMED 1920-12-13 03:00:00 TS -20.0297 62.4946 main 491 490 _________P____ -1 -20.0297 62.4946 TC 25 6 198
1920346S14072 1921 54 SI MM NOT_NAMED 1920-12-13 06:00:00 TS -20.3000 62.5000 main 490 490 _________O____ -1 -20.3000 62.5000 TC 25 6 170
1920346S14072 1921 54 SI MM NOT_NAMED 1920-12-13 09:00:00 TS -20.6225 62.6048 main 501 501 _________P____ -1 -20.6225 62.6048 TC 25 7 155
1920346S14072 1921 54 SI MM NOT_NAMED 1920-12-13 12:00:00 TS -20.9000 62.8000 main 524 524 _________O____ -1 -20.9000 62.8000 TC 25 6 142
1920346S14072 1921 54 SI MM NOT_NAMED 1920-12-13 15:00:00 TS -21.0800 62.9851 main 548 548 _________P____ -1 -21.0800 62.9851 TC 25 5 129
1920346S14072 1921 54 SI MM NOT_NAMED 1920-12-13 18:00:00 TS -21.2000 63.2000 main 570 570 _________O____ -1 -21.2000 63.2000 TC 25 5 118
1920346S14072 1921 54 SI MM NOT_NAMED 1920-12-13 21:00:00 TS -21.3026 63.4424 main 592 592 _________P____ -1 -21.3026 63.4424 TC 25 5 113
1920346S14072 1921 54 SI MM NOT_NAMED 1920-12-14 00:00:00 TS -21.4000 63.7000 main 625 _________O____ -1 -21.4000 63.7000 TC 25 5 112

IBTrACS Databaseについて

本データベースは、米国NOAAが公開する1842年以降の世界の熱帯低気圧のベストトラックデータアーカイブInternational Best Track Archive for Climate Stewardship (IBTrACS)を、ウェブで閲覧しやすい形式に変換したものです。

最終更新日:2021-12-03